createdAt,value
2022-11-29T00:00:10.882Z,-5.65
2022-11-29T00:02:41.588Z,-5.70
2022-11-29T00:05:12.736Z,-5.76
2022-11-29T00:07:43.650Z,-5.89
2022-11-29T00:10:16.251Z,-5.64
2022-11-29T00:12:49.858Z,-5.71
2022-11-29T00:15:21.234Z,-5.67
2022-11-29T00:17:52.440Z,-5.72
2022-11-29T00:20:23.541Z,-5.63
2022-11-29T00:22:54.318Z,-5.70
2022-11-29T00:25:26.990Z,-5.49
2022-11-29T00:27:57.847Z,-5.47
2022-11-29T00:30:29.261Z,-5.34
2022-11-29T00:33:00.508Z,-5.26
2022-11-29T00:35:31.446Z,-5.37
2022-11-29T00:38:02.707Z,-5.28
2022-11-29T00:40:37.987Z,-5.25
2022-11-29T00:43:08.657Z,-5.20
2022-11-29T00:45:39.481Z,-5.15
2022-11-29T00:48:10.469Z,-5.07
2022-11-29T00:50:41.222Z,-4.99
2022-11-29T00:53:11.917Z,-4.90
2022-11-29T00:55:44.288Z,-4.99
2022-11-29T00:58:15.079Z,-4.96
2022-11-29T01:00:45.948Z,-4.97
2022-11-29T01:03:17.375Z,-4.73
2022-11-29T01:05:48.527Z,-4.69
2022-11-29T01:08:19.681Z,-4.81
2022-11-29T01:10:52.053Z,-4.50
2022-11-29T01:13:22.794Z,-4.43
2022-11-29T01:15:59.411Z,-4.40
2022-11-29T01:18:31.321Z,-4.39
2022-11-29T01:21:04.949Z,-4.56
2022-11-29T01:23:37.432Z,-4.22
2022-11-29T01:26:12.411Z,-4.60
2022-11-29T01:28:44.372Z,-4.06
2022-11-29T01:31:18.058Z,-3.91
2022-11-29T01:33:49.308Z,-3.93
2022-11-29T01:36:20.080Z,-3.87
2022-11-29T01:38:50.746Z,-3.91
2022-11-29T01:41:24.743Z,-4.01
2022-11-29T01:44:01.829Z,-4.04
2022-11-29T01:46:35.434Z,-3.80
2022-11-29T01:49:10.099Z,-3.81
2022-11-29T01:51:43.115Z,-3.72
2022-11-29T01:54:15.851Z,-3.65
2022-11-29T01:56:50.613Z,-4.28
2022-11-29T01:59:24.989Z,-3.99
2022-11-29T02:01:56.870Z,-3.62
2022-11-29T02:04:27.613Z,-3.47
2022-11-29T02:06:58.341Z,-3.38
2022-11-29T02:09:29.161Z,-3.28
2022-11-29T02:12:16.358Z,-3.24
2022-11-29T02:14:59.984Z,-3.21
2022-11-29T02:17:38.808Z,-3.18
2022-11-29T02:20:38.535Z,-3.34
2022-11-29T02:26:24.403Z,-3.09
2022-11-29T02:29:45.893Z,-3.00
2022-11-29T02:33:00.964Z,-2.92
2022-11-29T02:35:51.139Z,-2.88
2022-11-29T02:38:39.651Z,-2.82
2022-11-29T02:41:30.761Z,-2.90
2022-11-29T02:44:31.511Z,-2.74
2022-11-29T02:47:16.280Z,-2.59
2022-11-29T02:50:04.975Z,-2.51
2022-11-29T02:52:48.089Z,-2.47
2022-11-29T02:55:28.106Z,-2.45
2022-11-29T02:58:01.662Z,-2.41
2022-11-29T03:00:32.974Z,-2.41
2022-11-29T03:03:13.048Z,-2.22
2022-11-29T03:05:45.603Z,-2.20
2022-11-29T03:08:26.076Z,-2.18
2022-11-29T03:11:05.487Z,-2.27
2022-11-29T03:13:53.939Z,-2.40
2022-11-29T03:16:43.047Z,-2.17
2022-11-29T03:19:32.887Z,-2.13
2022-11-29T03:22:13.088Z,-2.11
2022-11-29T03:24:53.711Z,-2.05
2022-11-29T03:27:33.428Z,-2.07
2022-11-29T03:30:08.320Z,-2.20
2022-11-29T03:32:48.532Z,-2.08
2022-11-29T03:35:28.175Z,-1.88
2022-11-29T03:38:05.822Z,-1.81
2022-11-29T03:40:48.178Z,-1.87
2022-11-29T03:43:23.956Z,-1.84
2022-11-29T03:46:01.246Z,-1.63
2022-11-29T03:48:36.455Z,-1.50
2022-11-29T03:51:11.101Z,-1.25
2022-11-29T03:53:49.163Z,-1.20
2022-11-29T03:56:32.670Z,-1.04
2022-11-29T03:59:20.347Z,-0.97
2022-11-29T04:02:07.050Z,-1.41
2022-11-29T04:05:09.052Z,-1.05
2022-11-29T04:08:03.285Z,-0.91
2022-11-29T04:11:05.550Z,-0.95
2022-11-29T04:13:59.647Z,-1.00
2022-11-29T04:16:59.176Z,-0.50
2022-11-29T04:19:51.464Z,-0.51
2022-11-29T04:22:45.368Z,-0.49
2022-11-29T04:26:05.566Z,-0.34
2022-11-29T04:29:10.585Z,-0.24
2022-11-29T04:31:55.798Z,-0.19
2022-11-29T04:35:07.297Z,-0.25
2022-11-29T04:38:02.173Z,-0.09
2022-11-29T04:40:59.315Z,-0.02
2022-11-29T04:43:55.256Z,0.02
2022-11-29T04:47:00.567Z,0.13
2022-11-29T04:50:08.918Z,0.13
2022-11-29T04:53:07.007Z,0.16
2022-11-29T04:55:47.695Z,-0.04
2022-11-29T04:58:28.163Z,0.17
2022-11-29T05:01:04.993Z,0.20
2022-11-29T05:03:46.792Z,0.15
2022-11-29T05:06:28.471Z,0.24
2022-11-29T05:09:05.973Z,0.19
2022-11-29T05:11:53.143Z,0.15
2022-11-29T05:14:35.618Z,0.08
2022-11-29T05:17:26.933Z,0.06
2022-11-29T05:20:10.030Z,0.17
2022-11-29T05:22:50.981Z,-0.18
2022-11-29T05:25:38.485Z,0.02
2022-11-29T05:28:18.421Z,0.15
2022-11-29T05:31:00.142Z,0.18
2022-11-29T05:33:46.324Z,0.11
2022-11-29T05:36:30.460Z,0.14
2022-11-29T05:39:18.875Z,0.26
2022-11-29T05:42:10.633Z,-0.04
2022-11-29T05:44:48.643Z,0.33
2022-11-29T05:47:31.056Z,0.38
2022-11-29T05:50:13.442Z,0.42
2022-11-29T05:52:56.483Z,0.46
2022-11-29T05:55:39.103Z,0.71
2022-11-29T05:58:34.920Z,0.66
2022-11-29T06:01:20.549Z,1.15
2022-11-29T06:04:15.143Z,1.13
2022-11-29T06:06:53.115Z,1.54
2022-11-29T06:09:50.755Z,1.54
2022-11-29T06:12:28.117Z,1.53
2022-11-29T06:15:29.742Z,1.89
2022-11-29T06:18:32.958Z,2.20
2022-11-29T06:21:17.378Z,2.44
2022-11-29T06:28:15.005Z,2.73
2022-11-29T06:30:58.208Z,2.87
2022-11-29T06:33:35.766Z,3.18
2022-11-29T06:36:17.000Z,2.90
2022-11-29T06:38:48.544Z,3.11
2022-11-29T06:41:23.129Z,3.14
2022-11-29T06:43:56.196Z,3.06
2022-11-29T06:46:45.775Z,3.03
2022-11-29T06:49:22.033Z,3.17
2022-11-29T06:52:02.985Z,3.25
2022-11-29T06:54:48.349Z,3.60
2022-11-29T06:57:27.842Z,3.42
2022-11-29T07:00:12.526Z,3.55
2022-11-29T07:03:03.523Z,3.61
2022-11-29T07:05:38.824Z,3.49
2022-11-29T07:08:15.031Z,3.33
2022-11-29T07:10:51.045Z,3.63
2022-11-29T07:13:23.674Z,3.57
2022-11-29T07:16:06.921Z,3.57
2022-11-29T07:18:52.654Z,3.54
2022-11-29T07:21:29.706Z,3.48
2022-11-29T07:24:08.626Z,3.44
2022-11-29T07:26:49.192Z,3.54
2022-11-29T07:29:34.717Z,3.57
2022-11-29T07:32:20.171Z,3.68
2022-11-29T07:35:04.382Z,3.75
2022-11-29T07:37:42.840Z,3.91
2022-11-29T07:40:18.951Z,3.98
2022-11-29T07:43:04.922Z,4.03
2022-11-29T07:45:40.194Z,3.80
2022-11-29T07:48:15.313Z,4.03
2022-11-29T07:50:46.822Z,4.16
2022-11-29T07:53:22.513Z,4.10
2022-11-29T07:55:54.511Z,4.05
2022-11-29T07:58:25.882Z,3.98
2022-11-29T08:00:56.726Z,3.85
2022-11-29T08:03:29.248Z,3.85
2022-11-29T08:06:00.379Z,3.98
2022-11-29T08:08:33.675Z,3.86
2022-11-29T08:11:04.342Z,3.84
2022-11-29T08:13:35.364Z,3.80
2022-11-29T08:16:08.347Z,3.74
2022-11-29T08:18:47.396Z,3.67
2022-11-29T08:21:55.319Z,3.84
2022-11-29T08:24:33.621Z,3.75
2022-11-29T08:27:06.279Z,3.69
2022-11-29T08:29:41.547Z,3.57
2022-11-29T08:32:15.020Z,3.56
2022-11-29T08:34:47.834Z,3.52
2022-11-29T08:37:18.809Z,3.45
2022-11-29T08:39:49.623Z,3.46
2022-11-29T08:42:23.459Z,3.40
2022-11-29T08:44:54.608Z,3.50
2022-11-29T08:47:42.007Z,3.40
2022-11-29T08:50:17.439Z,3.15
2022-11-29T08:53:06.704Z,3.08
2022-11-29T08:55:40.744Z,2.93
2022-11-29T08:58:18.858Z,2.81
2022-11-29T09:00:50.710Z,2.83
2022-11-29T09:03:39.964Z,2.87
2022-11-29T09:06:16.073Z,2.38
2022-11-29T09:12:16.111Z,2.65
2022-11-29T09:14:58.300Z,2.50
2022-11-29T09:17:32.211Z,2.47
2022-11-29T09:20:06.634Z,2.49
2022-11-29T09:22:41.857Z,2.46
2022-11-29T09:25:15.381Z,2.42
2022-11-29T09:27:59.646Z,2.15
2022-11-29T09:30:47.701Z,2.11
2022-11-29T09:33:26.652Z,2.16
2022-11-29T09:36:09.165Z,2.08
2022-11-29T09:38:58.328Z,2.03
2022-11-29T09:42:07.678Z,1.82
2022-11-29T09:45:00.396Z,1.90
2022-11-29T09:47:50.937Z,1.82
2022-11-29T09:50:49.887Z,1.77
2022-11-29T09:53:36.648Z,1.69
2022-11-29T09:56:19.220Z,1.48
2022-11-29T09:58:55.530Z,1.55
2022-11-29T10:01:32.186Z,1.68
2022-11-29T10:04:08.457Z,1.64
2022-11-29T10:06:44.577Z,1.72
2022-11-29T10:09:20.450Z,1.68
2022-11-29T10:12:17.685Z,1.63
2022-11-29T10:14:57.808Z,1.58
2022-11-29T10:17:37.618Z,1.55
2022-11-29T10:20:14.546Z,1.17
2022-11-29T10:25:58.500Z,1.50
2022-11-29T10:28:32.922Z,1.47
2022-11-29T10:31:12.756Z,1.33
2022-11-29T10:33:44.010Z,1.44
2022-11-29T10:36:34.395Z,1.44
2022-11-29T10:39:14.456Z,1.36
2022-11-29T10:41:52.450Z,1.48
2022-11-29T10:44:32.151Z,1.51
2022-11-29T10:47:10.460Z,1.46
2022-11-29T10:50:08.147Z,1.19
2022-11-29T10:53:15.905Z,1.28
2022-11-29T10:55:52.647Z,1.37
2022-11-29T10:58:28.655Z,1.37
2022-11-29T11:01:03.020Z,1.39
2022-11-29T11:03:43.330Z,1.41
2022-11-29T11:06:17.825Z,1.48
2022-11-29T11:08:52.741Z,1.36
2022-11-29T11:11:44.834Z,1.54
2022-11-29T11:14:40.688Z,1.45
2022-11-29T11:17:27.295Z,1.55
2022-11-29T11:20:01.677Z,1.49
2022-11-29T11:22:33.765Z,1.41
2022-11-29T11:25:09.668Z,1.47
2022-11-29T11:27:42.833Z,1.37
2022-11-29T11:30:27.861Z,1.57
2022-11-29T11:33:22.486Z,1.57
2022-11-29T11:36:12.115Z,1.40
2022-11-29T11:38:45.408Z,1.61
2022-11-29T11:41:51.862Z,1.28
2022-11-29T11:44:50.451Z,1.58
2022-11-29T11:47:25.178Z,1.58
2022-11-29T11:53:07.170Z,1.58
2022-11-29T11:55:43.234Z,1.53
2022-11-29T11:58:25.973Z,1.49
2022-11-29T12:01:05.091Z,1.54
2022-11-29T12:03:57.616Z,1.38
2022-11-29T12:06:40.133Z,1.46
2022-11-29T12:09:22.686Z,1.54
2022-11-29T12:12:10.103Z,1.01
2022-11-29T12:15:00.724Z,1.32
2022-11-29T12:17:38.964Z,1.45
2022-11-29T12:20:25.367Z,1.37
2022-11-29T12:23:21.648Z,1.29
2022-11-29T12:25:56.249Z,1.40
2022-11-29T12:28:31.120Z,1.32
2022-11-29T12:31:15.084Z,1.21
2022-11-29T12:33:55.900Z,0.85
2022-11-29T12:36:39.813Z,1.13
2022-11-29T12:39:34.652Z,1.15
2022-11-29T12:42:14.693Z,1.03
2022-11-29T12:44:59.619Z,1.08
2022-11-29T12:47:48.836Z,0.83
2022-11-29T12:50:37.381Z,0.90
2022-11-29T12:53:27.684Z,0.94
2022-11-29T12:56:18.253Z,0.70
2022-11-29T12:59:02.950Z,0.72
2022-11-29T13:01:49.397Z,0.71
2022-11-29T13:04:32.527Z,0.53
2022-11-29T13:07:09.172Z,0.57
2022-11-29T13:10:37.054Z,0.38
2022-11-29T13:13:22.306Z,0.07
2022-11-29T13:16:04.546Z,-0.19
2022-11-29T13:18:44.160Z,-0.50
2022-11-29T13:21:18.353Z,-0.88
2022-11-29T13:24:11.924Z,-0.74
2022-11-29T13:26:44.684Z,-0.90
2022-11-29T13:29:19.345Z,-0.88
2022-11-29T13:31:54.172Z,-0.95
2022-11-29T13:34:31.934Z,-1.06
2022-11-29T13:37:10.843Z,-1.03
2022-11-29T13:40:04.614Z,-1.12
2022-11-29T13:42:46.143Z,-1.09
2022-11-29T13:45:33.376Z,-1.37
2022-11-29T13:48:38.484Z,-1.18
2022-11-29T13:51:28.884Z,-1.17
2022-11-29T13:54:01.546Z,-1.22
2022-11-29T13:56:43.867Z,-1.18
2022-11-29T13:59:35.589Z,-1.43
2022-11-29T14:02:31.089Z,-1.26
2022-11-29T14:05:03.791Z,-1.26
2022-11-29T14:07:35.876Z,-1.26
2022-11-29T14:10:12.338Z,-1.48
2022-11-29T14:12:52.759Z,-1.28
2022-11-29T14:15:29.072Z,-1.34
2022-11-29T14:18:04.954Z,-1.37
2022-11-29T14:21:05.411Z,-1.40
2022-11-29T14:23:51.665Z,-1.94
2022-11-29T14:26:29.266Z,-1.44
2022-11-29T14:29:01.365Z,-1.43
2022-11-29T14:31:56.319Z,-1.50
2022-11-29T14:34:49.965Z,-1.61
2022-11-29T14:37:43.684Z,-1.74
2022-11-29T14:40:34.369Z,-1.85
2022-11-29T14:43:06.946Z,-2.18
2022-11-29T14:45:41.045Z,-2.21
2022-11-29T14:48:28.575Z,-2.43
2022-11-29T14:51:14.047Z,-2.43
2022-11-29T14:53:47.312Z,-2.80
2022-11-29T14:56:43.280Z,-2.55
2022-11-29T14:59:43.479Z,-2.55
2022-11-29T15:02:28.938Z,-2.96
2022-11-29T15:05:07.359Z,-2.79
2022-11-29T15:07:44.868Z,-2.89
2022-11-29T15:10:22.986Z,-3.11
2022-11-29T15:12:55.369Z,-3.26
2022-11-29T15:15:41.031Z,-3.27
2022-11-29T15:18:29.373Z,-3.32
2022-11-29T15:21:26.233Z,-3.22
2022-11-29T15:24:12.275Z,-3.22
2022-11-29T15:26:57.178Z,-3.23
2022-11-29T15:29:29.185Z,-3.27
2022-11-29T15:32:09.499Z,-3.56
2022-11-29T15:34:44.004Z,-3.37
2022-11-29T15:37:25.388Z,-3.21
2022-11-29T15:40:11.259Z,-3.76
2022-11-29T15:42:47.502Z,-3.16
2022-11-29T15:45:37.791Z,-3.09
2022-11-29T15:48:20.238Z,-3.16
2022-11-29T15:51:01.287Z,-3.25
2022-11-29T15:53:37.307Z,-3.23
2022-11-29T15:56:19.474Z,-3.25
2022-11-29T15:58:55.071Z,-3.33
2022-11-29T16:01:26.087Z,-3.29
2022-11-29T16:04:00.030Z,-3.26
2022-11-29T16:06:36.200Z,-3.36
2022-11-29T16:09:12.235Z,-3.24
2022-11-29T16:11:45.228Z,-3.42
2022-11-29T16:14:24.740Z,-3.54
2022-11-29T16:16:57.411Z,-3.43
2022-11-29T16:19:37.781Z,-3.35
2022-11-29T16:22:23.739Z,-3.30
2022-11-29T16:25:06.036Z,-3.61
2022-11-29T16:27:39.188Z,-3.26
2022-11-29T16:30:22.776Z,-3.19
2022-11-29T16:32:57.603Z,-3.19
2022-11-29T16:35:30.649Z,-3.18
2022-11-29T16:38:04.153Z,-3.21
2022-11-29T16:40:44.303Z,-3.23
2022-11-29T16:43:47.868Z,-3.22
2022-11-29T16:46:49.840Z,-3.44
2022-11-29T16:49:39.360Z,-3.32
2022-11-29T16:52:30.046Z,-3.47
2022-11-29T16:55:00.738Z,-3.39
2022-11-29T16:57:32.718Z,-3.45
2022-11-29T17:00:11.885Z,-3.53
2022-11-29T17:02:45.754Z,-3.50
2022-11-29T17:05:19.024Z,-3.54
2022-11-29T17:07:50.746Z,-3.58
2022-11-29T17:10:24.137Z,-4.30
2022-11-29T17:12:57.499Z,-3.78
2022-11-29T17:15:31.948Z,-3.80
2022-11-29T17:18:04.912Z,-3.85
2022-11-29T17:20:35.808Z,-3.74
2022-11-29T17:23:06.385Z,-3.81
2022-11-29T17:25:40.040Z,-3.86
2022-11-29T17:28:11.253Z,-3.90
2022-11-29T17:30:44.998Z,-3.92
2022-11-29T17:33:15.751Z,-3.95
2022-11-29T17:35:46.376Z,-3.99
2022-11-29T17:38:16.944Z,-4.03
2022-11-29T17:40:47.583Z,-4.07
2022-11-29T17:43:18.115Z,-4.17
2022-11-29T17:45:50.383Z,-4.10
2022-11-29T17:48:21.152Z,-4.15
2022-11-29T17:50:52.033Z,-4.01
2022-11-29T17:53:24.834Z,-4.01
2022-11-29T17:55:57.576Z,-3.95
2022-11-29T17:58:28.223Z,-3.91
2022-11-29T18:01:06.585Z,-3.93
2022-11-29T18:03:41.547Z,-4.00
2022-11-29T18:06:14.759Z,-3.93
2022-11-29T18:08:49.275Z,-3.90
2022-11-29T18:11:21.655Z,-3.87
2022-11-29T18:13:53.635Z,-4.13
2022-11-29T18:16:27.919Z,-3.99
2022-11-29T18:19:04.110Z,-3.92
2022-11-29T18:21:35.870Z,-3.86
2022-11-29T18:24:11.668Z,-4.04
2022-11-29T18:26:42.985Z,-3.91
2022-11-29T18:29:14.998Z,-3.90
2022-11-29T18:31:51.389Z,-4.44
2022-11-29T18:34:24.433Z,-4.06
2022-11-29T18:36:54.941Z,-4.12
2022-11-29T18:39:25.894Z,-4.01
2022-11-29T18:41:56.608Z,-4.05
2022-11-29T18:44:31.768Z,-4.06
2022-11-29T18:47:07.291Z,-4.10
2022-11-29T18:49:37.998Z,-4.12
2022-11-29T18:52:08.747Z,-4.08
2022-11-29T18:54:42.635Z,-4.06
2022-11-29T18:57:15.539Z,-4.09
2022-11-29T18:59:46.183Z,-4.15
2022-11-29T19:02:21.225Z,-4.15
2022-11-29T19:04:54.478Z,-4.16
2022-11-29T19:07:25.244Z,-4.19
2022-11-29T19:10:01.173Z,-4.18
2022-11-29T19:12:38.744Z,-4.19
2022-11-29T19:15:10.503Z,-4.20
2022-11-29T19:17:45.747Z,-4.27
2022-11-29T19:20:17.081Z,-4.37
2022-11-29T19:22:48.749Z,-4.45
2022-11-29T19:25:19.572Z,-4.46
2022-11-29T19:27:51.029Z,-4.42
2022-11-29T19:30:24.587Z,-4.46
2022-11-29T19:32:57.097Z,-4.42
2022-11-29T19:35:27.871Z,-4.39
2022-11-29T19:37:58.618Z,-4.54
2022-11-29T19:40:29.766Z,-4.52
2022-11-29T19:43:00.508Z,-4.63
2022-11-29T19:45:31.335Z,-4.62
2022-11-29T19:48:03.751Z,-4.63
2022-11-29T19:50:39.215Z,-4.63
2022-11-29T19:53:11.235Z,-4.74
2022-11-29T19:55:44.000Z,-4.71
2022-11-29T19:58:14.974Z,-4.67
2022-11-29T20:00:45.575Z,-4.68
2022-11-29T20:03:18.171Z,-4.69
2022-11-29T20:06:00.030Z,-4.71
2022-11-29T20:08:30.975Z,-4.63
2022-11-29T20:11:09.122Z,-4.66
2022-11-29T20:13:40.305Z,-4.64
2022-11-29T20:16:13.433Z,-4.67
2022-11-29T20:18:50.943Z,-4.86
2022-11-29T20:21:24.235Z,-4.79
2022-11-29T20:23:59.022Z,-4.82
2022-11-29T20:26:33.813Z,-4.81
2022-11-29T20:29:07.049Z,-4.82
2022-11-29T20:31:40.320Z,-4.76
2022-11-29T20:34:17.070Z,-4.87
2022-11-29T20:37:08.263Z,-4.97
2022-11-29T20:39:46.456Z,-4.93
2022-11-29T20:42:39.470Z,-5.18
2022-11-29T20:45:12.066Z,-4.90
2022-11-29T20:47:51.786Z,-5.17
2022-11-29T20:50:26.060Z,-5.29
2022-11-29T20:53:07.976Z,-4.96
2022-11-29T20:55:45.008Z,-4.82
2022-11-29T20:58:19.159Z,-4.80
2022-11-29T21:00:50.357Z,-4.83
2022-11-29T21:03:21.888Z,-4.94
2022-11-29T21:05:55.280Z,-4.98
2022-11-29T21:08:28.568Z,-5.02
2022-11-29T21:11:05.503Z,-5.03
2022-11-29T21:13:37.207Z,-4.96
2022-11-29T21:16:08.684Z,-4.97
2022-11-29T21:18:39.967Z,-5.04
2022-11-29T21:21:25.492Z,-5.09
2022-11-29T21:24:03.749Z,-5.34
2022-11-29T21:26:41.726Z,-5.12
2022-11-29T21:29:19.260Z,-5.17
2022-11-29T21:31:52.293Z,-5.09
2022-11-29T21:34:23.206Z,-5.17
2022-11-29T21:36:59.695Z,-5.07
2022-11-29T21:39:34.893Z,-5.33
2022-11-29T21:42:05.753Z,-5.00
2022-11-29T21:44:36.489Z,-5.04
2022-11-29T21:47:07.350Z,-5.13
2022-11-29T21:49:38.307Z,-5.16
2022-11-29T21:52:11.586Z,-5.21
2022-11-29T21:54:42.499Z,-5.36
2022-11-29T21:57:13.187Z,-5.31
2022-11-29T21:59:43.818Z,-5.31
2022-11-29T22:02:14.955Z,-5.48
2022-11-29T22:04:45.842Z,-5.70
2022-11-29T22:07:27.440Z,-5.82
2022-11-29T22:09:58.120Z,-6.02
2022-11-29T22:12:34.181Z,-6.05
2022-11-29T22:15:05.582Z,-6.07
2022-11-29T22:17:36.171Z,-5.96
2022-11-29T22:20:07.043Z,-5.84
2022-11-29T22:22:39.284Z,-5.88
2022-11-29T22:25:10.523Z,-5.69
2022-11-29T22:27:41.152Z,-5.66
2022-11-29T22:30:12.497Z,-5.65
2022-11-29T22:32:43.073Z,-5.73
2022-11-29T22:35:13.713Z,-5.54
2022-11-29T22:37:46.079Z,-5.51
2022-11-29T22:40:17.812Z,-5.50
2022-11-29T22:42:48.513Z,-5.53
2022-11-29T22:45:19.350Z,-5.52
2022-11-29T22:47:49.952Z,-5.57
2022-11-29T22:50:20.624Z,-5.52
2022-11-29T22:52:56.473Z,-5.43
2022-11-29T22:55:27.058Z,-5.48
2022-11-29T22:57:57.752Z,-5.37
2022-11-29T23:00:28.465Z,-5.43
2022-11-29T23:03:00.224Z,-5.44
2022-11-29T23:05:32.522Z,-5.46
2022-11-29T23:08:04.836Z,-5.56
2022-11-29T23:10:35.118Z,-5.51
2022-11-29T23:13:05.896Z,-5.41
2022-11-29T23:15:36.568Z,-5.24
2022-11-29T23:18:07.512Z,-5.36
2022-11-29T23:20:38.293Z,-5.26
2022-11-29T23:23:10.593Z,-5.17
2022-11-29T23:25:48.267Z,-5.21
2022-11-29T23:28:19.232Z,-5.25
2022-11-29T23:30:49.858Z,-5.12
2022-11-29T23:33:20.607Z,-5.13
2022-11-29T23:35:51.445Z,-5.00
2022-11-29T23:38:23.743Z,-5.04
2022-11-29T23:40:54.421Z,-4.95
2022-11-29T23:43:25.456Z,-4.95
2022-11-29T23:45:56.136Z,-5.00
2022-11-29T23:48:27.175Z,-4.75
2022-11-29T23:50:57.816Z,-4.96
2022-11-29T23:53:30.465Z,-5.17
2022-11-29T23:56:02.572Z,-5.27
2022-11-29T23:58:34.669Z,-5.14
